Time;durP1;ratioP1;P1;durP2;ratioP2;P2;SDS_P1;SDS_P2;PMS_P1;PMS_P2;Temp;Humidity;BMP_temperature;BMP_pressure;BME280_temperature;BME280_humidity;BME280_pressure;Samples;Min_cycle;Max_cycle;Signal;HPM_P1;HPM_P2
2023/03/21 00:01:07;;;;;;;;;;;8.60;99.90;;;;;;5063786;28;20177;-68
2023/03/21 00:03:35;;;;;;;;;;;8.60;99.90;;;;;;5064055;28;20182;-68
2023/03/21 00:06:05;;;;;;;;;;;8.60;99.90;;;;;;5063573;28;20159;-68
2023/03/21 00:08:32;;;;;;;;;;;8.60;99.90;;;;;;5063829;28;19956;-68
2023/03/21 00:10:59;;;;;;;;;;;8.60;99.90;;;;;;5064015;28;20125;-67
2023/03/21 00:13:27;;;;;;;;;;;8.60;99.90;;;;;;5063578;28;19955;-68
2023/03/21 00:15:55;;;;;;;;;;;8.60;99.90;;;;;;5062912;28;19995;-69
2023/03/21 00:18:24;;;;;;;;;;;8.60;99.90;;;;;;5063720;28;19921;-68
2023/03/21 00:20:58;;;;;;;;;;;8.60;99.90;;;;;;5063745;28;19962;-67
2023/03/21 00:23:25;;;;;;;;;;;8.60;99.90;;;;;;5063635;28;19920;-68
2023/03/21 00:25:51;;;;;;;;;;;8.60;99.90;;;;;;5060650;28;20183;-70
2023/03/21 00:28:18;;;;;;;;;;;8.60;99.90;;;;;;5063226;28;19927;-70
2023/03/21 00:30:45;;;;;;;;;;;8.60;99.90;;;;;;5063320;28;19984;-70
2023/03/21 00:33:12;;;;;;;;;;;8.60;99.90;;;;;;5063600;28;19920;-70
2023/03/21 00:35:42;;;;;;;;;;;8.60;99.90;;;;;;5063087;28;19921;-70
2023/03/21 00:38:08;;;;;;;;;;;8.60;99.90;;;;;;5063686;28;19921;-69
2023/03/21 00:40:37;;;;;;;;;;;8.60;99.90;;;;;;5045067;28;21766;-71
2023/03/21 00:43:03;;;;;;;;;;;8.70;99.90;;;;;;5063197;28;19960;-67
2023/03/21 00:45:30;;;;;;;;;;;8.60;99.90;;;;;;5063391;28;19979;-67
2023/03/21 00:47:57;;;;;;;;;;;8.60;99.90;;;;;;5062896;28;19927;-67
2023/03/21 00:50:24;;;;;;;;;;;8.50;99.90;;;;;;5051183;23;20279;-89
2023/03/21 00:52:54;;;;;;;;;;;8.50;99.90;;;;;;5031003;28;19921;-89
2023/03/21 00:55:21;;;;;;;;;;;8.50;99.90;;;;;;5023503;28;20106;-89
2023/03/21 00:57:48;;;;;;;;;;;8.50;99.90;;;;;;5023193;28;19957;-89
2023/03/21 01:00:16;;;;;;;;;;;8.50;99.90;;;;;;5022674;28;19922;-89
2023/03/21 01:02:55;;;;;;;;;;;8.40;99.90;;;;;;5023162;28;19921;-89
2023/03/21 01:06:01;;;;;;;;;;;8.40;99.90;;;;;;5022951;28;19945;-89
2023/03/21 01:08:11;;;;;;;;;;;8.40;99.90;;;;;;5023070;28;19921;-89
2023/03/21 01:10:38;;;;;;;;;;;8.40;99.90;;;;;;5022673;28;19949;-89
2023/03/21 01:13:05;;;;;;;;;;;8.40;99.90;;;;;;5021805;28;19945;-89
2023/03/21 01:15:31;;;;;;;;;;;8.30;99.90;;;;;;5023333;28;19984;-89
2023/03/21 01:17:58;;;;;;;;;;;8.30;99.90;;;;;;5022678;28;19921;-89
2023/03/21 01:20:25;;;;;;;;;;;8.30;99.90;;;;;;5023171;28;19993;-89
2023/03/21 01:22:52;;;;;;;;;;;8.30;99.90;;;;;;5022629;28;19929;-89
2023/03/21 01:25:20;;;;;;;;;;;8.30;99.90;;;;;;5022858;28;19945;-89
2023/03/21 01:27:46;;;;;;;;;;;8.30;99.90;;;;;;5022945;28;19993;-88
2023/03/21 01:30:13;;;;;;;;;;;8.30;99.90;;;;;;5022822;28;19921;-89
2023/03/21 01:32:40;;;;;;;;;;;8.40;99.90;;;;;;5023089;28;20177;-88
2023/03/21 01:35:07;;;;;;;;;;;8.30;99.90;;;;;;5022361;28;19922;-89
2023/03/21 01:37:34;;;;;;;;;;;8.40;99.90;;;;;;5022752;28;20242;-89
2023/03/21 01:40:00;;;;;;;;;;;8.40;99.90;;;;;;5022777;28;19968;-89
2023/03/21 01:42:28;;;;;;;;;;;8.40;99.90;;;;;;5022056;28;19928;-89
2023/03/21 01:44:56;;;;;;;;;;;8.40;99.90;;;;;;5022990;28;19960;-91
2023/03/21 01:47:23;;;;;;;;;;;8.40;99.90;;;;;;5022209;28;20228;-91
2023/03/21 01:49:51;;;;;;;;;;;8.40;99.90;;;;;;5022663;28;19980;-91
2023/03/21 01:52:19;;;;;;;;;;;8.40;99.90;;;;;;5022757;28;19922;-91
2023/03/21 01:54:47;;;;;;;;;;;8.40;99.90;;;;;;5016223;28;19993;-91
2023/03/21 01:57:16;;;;;;;;;;;8.40;99.90;;;;;;5022635;28;19921;-91
2023/03/21 01:59:48;;;;;;;;;;;8.30;99.90;;;;;;5022382;28;20097;-91
2023/03/21 02:02:16;;;;;;;;;;;8.30;99.90;;;;;;5022608;28;19925;-90
2023/03/21 02:04:54;;;;;;;;;;;8.20;99.90;;;;;;5022273;28;19959;-91
2023/03/21 02:07:24;;;;;;;;;;;8.30;99.90;;;;;;5022465;28;20120;-91
2023/03/21 02:09:52;;;;;;;;;;;8.20;99.90;;;;;;5022721;28;19922;-91
2023/03/21 02:12:18;;;;;;;;;;;8.20;99.90;;;;;;5021855;28;19921;-91
2023/03/21 02:14:47;;;;;;;;;;;8.20;99.90;;;;;;5022495;28;19948;-91
2023/03/21 02:17:18;;;;;;;;;;;8.20;99.90;;;;;;5022170;28;19944;-91
2023/03/21 02:20:10;;;;;;;;;;;8.20;99.90;;;;;;5022601;28;19930;-91
2023/03/21 02:22:58;;;;;;;;;;;8.20;99.90;;;;;;5022529;28;19928;-91
2023/03/21 02:25:42;;;;;;;;;;;8.20;99.90;;;;;;5006875;28;19921;-91
2023/03/21 02:28:11;;;;;;;;;;;8.20;99.90;;;;;;5028215;28;19980;-91
2023/03/21 02:30:55;;;;;;;;;;;8.20;99.90;;;;;;5038642;28;19928;-91
2023/03/21 02:33:30;;;;;;;;;;;8.20;99.90;;;;;;5025752;28;19941;-91
2023/03/21 02:36:10;;;;;;;;;;;8.20;99.90;;;;;;5025782;28;19928;-91
2023/03/21 02:38:41;;;;;;;;;;;8.20;99.90;;;;;;5010867;28;19929;-91
2023/03/21 02:41:11;;;;;;;;;;;8.20;99.90;;;;;;5023900;28;19952;-91
2023/03/21 02:43:40;;;;;;;;;;;8.20;99.90;;;;;;5025711;28;19992;-91
2023/03/21 02:46:10;;;;;;;;;;;8.20;99.90;;;;;;5025343;28;19945;-91
2023/03/21 02:48:38;;;;;;;;;;;8.20;99.90;;;;;;5025239;28;19922;-91
2023/03/21 02:51:06;;;;;;;;;;;8.10;99.90;;;;;;5024909;28;19952;-91
2023/03/21 02:53:34;;;;;;;;;;;8.20;99.90;;;;;;5025700;28;19953;-91
2023/03/21 02:56:02;;;;;;;;;;;8.20;99.90;;;;;;5026746;28;19933;-91
2023/03/21 02:58:30;;;;;;;;;;;8.10;99.90;;;;;;5033288;28;19941;-91
2023/03/21 03:00:57;;;;;;;;;;;8.10;99.90;;;;;;5025690;28;19944;-91
2023/03/21 03:03:24;;;;;;;;;;;8.00;99.90;;;;;;5025127;28;20256;-91
2023/03/21 03:05:53;;;;;;;;;;;8.00;99.90;;;;;;5025076;28;19952;-89
2023/03/21 03:08:27;;;;;;;;;;;8.00;99.90;;;;;;5025080;28;20105;-89
2023/03/21 03:11:04;;;;;;;;;;;8.00;99.90;;;;;;5025097;28;19921;-89
2023/03/21 03:13:38;;;;;;;;;;;8.00;99.90;;;;;;5025314;28;20048;-89
2023/03/21 03:16:08;;;;;;;;;;;8.00;99.90;;;;;;5024359;28;20273;-89
2023/03/21 03:18:39;;;;;;;;;;;8.00;99.90;;;;;;5024763;28;19945;-89
2023/03/21 03:24:01;;;;;;;;;;;8.00;99.90;;;;;;5025928;28;19922;-89
2023/03/21 03:26:31;;;;;;;;;;;8.00;99.90;;;;;;5026112;28;19959;-89
2023/03/21 03:29:01;;;;;;;;;;;8.00;99.90;;;;;;5026949;28;19956;-89
2023/03/21 03:31:30;;;;;;;;;;;8.00;99.90;;;;;;5025229;28;20243;-89
2023/03/21 03:34:00;;;;;;;;;;;7.90;99.90;;;;;;5025336;28;19960;-89
2023/03/21 03:36:30;;;;;;;;;;;7.90;99.90;;;;;;5024411;28;19921;-89
2023/03/21 03:38:57;;;;;;;;;;;7.90;99.90;;;;;;5025608;28;20163;-89
2023/03/21 03:41:26;;;;;;;;;;;7.90;99.90;;;;;;5026198;28;19948;-89
2023/03/21 03:43:54;;;;;;;;;;;8.00;99.90;;;;;;5025121;28;19928;-89
2023/03/21 03:46:26;;;;;;;;;;;8.00;99.90;;;;;;5024846;28;20169;-91
2023/03/21 03:48:55;;;;;;;;;;;8.00;99.90;;;;;;5025170;28;19928;-89
2023/03/21 03:51:23;;;;;;;;;;;7.90;99.90;;;;;;5024934;28;19922;-89
2023/03/21 03:53:53;;;;;;;;;;;7.90;99.90;;;;;;5025146;28;19985;-89
2023/03/21 03:56:20;;;;;;;;;;;7.90;99.90;;;;;;5024549;28;19922;-89
2023/03/21 03:58:47;;;;;;;;;;;7.90;99.90;;;;;;5024945;28;20156;-89
2023/03/21 04:01:13;;;;;;;;;;;7.90;99.90;;;;;;5024638;28;19952;-89
2023/03/21 04:03:42;;;;;;;;;;;7.80;99.90;;;;;;5024934;28;19929;-89
2023/03/21 04:06:09;;;;;;;;;;;7.80;99.90;;;;;;5024600;28;19985;-89
2023/03/21 04:08:37;;;;;;;;;;;7.80;99.90;;;;;;5024710;28;19922;-89
2023/03/21 04:11:04;;;;;;;;;;;7.70;99.90;;;;;;5024799;28;19988;-89
2023/03/21 04:13:31;;;;;;;;;;;7.70;99.90;;;;;;5025025;28;19921;-89
2023/03/21 04:15:58;;;;;;;;;;;7.70;99.90;;;;;;5024252;28;19945;-88
2023/03/21 04:18:25;;;;;;;;;;;7.70;99.90;;;;;;5024159;28;19992;-89
2023/03/21 04:20:53;;;;;;;;;;;7.70;99.90;;;;;;5024226;28;19925;-89
2023/03/21 04:23:19;;;;;;;;;;;7.70;99.90;;;;;;5005014;28;19961;-89
2023/03/21 04:25:46;;;;;;;;;;;7.70;99.90;;;;;;5010481;28;19952;-89
2023/03/21 04:28:13;;;;;;;;;;;7.70;99.90;;;;;;5024465;28;20173;-89
2023/03/21 04:30:40;;;;;;;;;;;7.70;99.90;;;;;;5024282;28;20102;-89
2023/03/21 04:33:07;;;;;;;;;;;7.70;99.90;;;;;;5024089;28;19980;-88
2023/03/21 04:35:35;;;;;;;;;;;7.70;99.90;;;;;;5024229;28;19948;-88
2023/03/21 04:38:03;;;;;;;;;;;7.70;99.90;;;;;;5023982;28;19926;-88
2023/03/21 04:40:30;;;;;;;;;;;7.70;99.90;;;;;;5024236;28;19941;-89
2023/03/21 04:43:00;;;;;;;;;;;7.70;99.90;;;;;;5024092;28;19955;-89
2023/03/21 04:45:27;;;;;;;;;;;7.60;99.90;;;;;;5023865;28;19949;-89
2023/03/21 04:47:53;;;;;;;;;;;7.60;99.90;;;;;;5023909;28;19945;-89
2023/03/21 04:50:20;;;;;;;;;;;7.60;99.90;;;;;;5023880;28;19921;-89
2023/03/21 04:52:47;;;;;;;;;;;7.60;99.90;;;;;;5024066;28;19945;-89
2023/03/21 04:55:15;;;;;;;;;;;7.60;99.90;;;;;;5023890;28;19993;-88
2023/03/21 04:57:42;;;;;;;;;;;7.50;99.90;;;;;;5023675;28;19985;-89
2023/03/21 05:00:10;;;;;;;;;;;7.50;99.90;;;;;;5023972;28;19997;-89
2023/03/21 05:02:37;;;;;;;;;;;7.50;99.90;;;;;;5023641;28;20251;-89
2023/03/21 05:05:04;;;;;;;;;;;7.50;99.90;;;;;;5023649;28;19941;-89
2023/03/21 05:07:31;;;;;;;;;;;7.50;99.90;;;;;;5023610;28;19948;-89
2023/03/21 05:09:58;;;;;;;;;;;7.50;99.90;;;;;;5023801;28;19927;-89
2023/03/21 05:12:26;;;;;;;;;;;7.40;99.90;;;;;;5023696;28;19929;-89
2023/03/21 05:14:53;;;;;;;;;;;7.40;99.90;;;;;;5024078;28;19959;-89
2023/03/21 05:17:22;;;;;;;;;;;7.40;99.90;;;;;;5023280;28;20184;-88
2023/03/21 05:19:49;;;;;;;;;;;7.40;99.90;;;;;;5023972;28;19935;-90
2023/03/21 05:22:18;;;;;;;;;;;7.30;99.90;;;;;;5023352;28;19921;-89
2023/03/21 05:24:48;;;;;;;;;;;7.40;99.90;;;;;;5023448;28;19921;-89
2023/03/21 05:27:33;;;;;;;;;;;7.40;99.90;;;;;;5023309;28;19928;-89
2023/03/21 05:30:02;;;;;;;;;;;7.30;99.90;;;;;;5024009;28;19928;-90
2023/03/21 05:32:28;;;;;;;;;;;7.30;99.90;;;;;;5023750;28;19929;-89
2023/03/21 05:34:55;;;;;;;;;;;7.40;99.90;;;;;;5025538;28;19937;-91
2023/03/21 05:37:22;;;;;;;;;;;7.40;99.90;;;;;;5023423;28;19929;-88
2023/03/21 05:39:49;;;;;;;;;;;7.40;99.90;;;;;;5023360;28;19989;-89
2023/03/21 05:42:17;;;;;;;;;;;7.40;99.90;;;;;;5025890;28;20267;-94
2023/03/21 05:44:44;;;;;;;;;;;7.40;99.90;;;;;;5025369;28;19960;-90
2023/03/21 05:47:12;;;;;;;;;;;7.40;99.90;;;;;;5023236;28;19986;-90
2023/03/21 05:49:39;;;;;;;;;;;7.50;99.90;;;;;;5023384;28;19928;-90
2023/03/21 05:52:05;;;;;;;;;;;7.50;99.90;;;;;;5023407;28;20046;-90
2023/03/21 05:54:32;;;;;;;;;;;7.50;99.90;;;;;;5023455;28;19922;-90
2023/03/21 05:56:59;;;;;;;;;;;7.60;99.90;;;;;;5022383;28;19960;-90
2023/03/21 05:59:26;;;;;;;;;;;7.60;99.90;;;;;;5025988;28;19949;-90
2023/03/21 06:01:53;;;;;;;;;;;7.60;99.90;;;;;;5026900;28;19984;-90
2023/03/21 06:04:21;;;;;;;;;;;7.70;99.90;;;;;;5026356;28;19926;-90
2023/03/21 06:06:47;;;;;;;;;;;7.70;99.90;;;;;;5026086;28;19922;-89
2023/03/21 06:09:14;;;;;;;;;;;7.70;99.90;;;;;;5026479;28;19922;-90
2023/03/21 06:11:44;;;;;;;;;;;7.70;99.90;;;;;;5026701;28;19928;-90
2023/03/21 06:14:10;;;;;;;;;;;7.70;99.90;;;;;;5026208;28;19925;-90
2023/03/21 06:16:37;;;;;;;;;;;7.70;99.90;;;;;;5029450;28;19953;-90
2023/03/21 06:19:04;;;;;;;;;;;7.80;99.90;;;;;;5026999;28;19921;-90
2023/03/21 06:21:32;;;;;;;;;;;7.80;99.90;;;;;;5026987;28;19941;-90
2023/03/21 06:23:59;;;;;;;;;;;7.70;99.90;;;;;;5026436;28;20180;-90
2023/03/21 06:26:25;;;;;;;;;;;7.80;99.90;;;;;;5043836;23;19956;-70
2023/03/21 06:28:53;;;;;;;;;;;7.70;99.90;;;;;;5045996;28;19927;-69
2023/03/21 06:31:21;;;;;;;;;;;7.70;99.90;;;;;;5045846;28;19921;-72
2023/03/21 06:33:47;;;;;;;;;;;7.80;99.90;;;;;;5046480;28;19984;-69
2023/03/21 06:36:14;;;;;;;;;;;7.90;99.90;;;;;;5043289;28;19951;-69
2023/03/21 06:38:42;;;;;;;;;;;7.90;99.90;;;;;;5046389;28;20116;-68
2023/03/21 06:41:09;;;;;;;;;;;7.90;99.90;;;;;;5046257;28;20216;-70
2023/03/21 06:43:36;;;;;;;;;;;8.00;99.90;;;;;;5046293;28;19925;-69
2023/03/21 06:46:04;;;;;;;;;;;8.00;99.90;;;;;;5045535;28;19956;-70
2023/03/21 06:48:31;;;;;;;;;;;8.00;99.90;;;;;;5046330;28;19921;-70
2023/03/21 06:50:57;;;;;;;;;;;8.10;99.90;;;;;;5046224;28;19928;-70
2023/03/21 06:53:26;;;;;;;;;;;8.10;99.90;;;;;;5045963;28;19921;-69
2023/03/21 06:55:54;;;;;;;;;;;8.10;99.90;;;;;;5045313;28;19921;-69
2023/03/21 06:58:21;;;;;;;;;;;8.10;99.90;;;;;;5045389;28;19929;-70
2023/03/21 07:00:48;;;;;;;;;;;8.20;99.90;;;;;;5045480;28;20124;-69
2023/03/21 07:03:18;;;;;;;;;;;8.10;99.90;;;;;;5046124;28;19928;-73
2023/03/21 07:05:45;;;;;;;;;;;8.20;99.90;;;;;;5045453;28;19921;-69
2023/03/21 07:08:12;;;;;;;;;;;8.20;99.90;;;;;;5045706;28;19979;-70
2023/03/21 07:10:40;;;;;;;;;;;8.30;99.90;;;;;;5044186;28;19960;-69
2023/03/21 07:13:08;;;;;;;;;;;8.30;99.90;;;;;;5045666;28;20115;-69
2023/03/21 07:15:36;;;;;;;;;;;8.30;99.90;;;;;;5045291;28;19959;-68
2023/03/21 07:18:03;;;;;;;;;;;8.40;99.90;;;;;;5045193;28;19921;-70
2023/03/21 07:20:31;;;;;;;;;;;8.40;99.90;;;;;;5045253;28;19988;-70
2023/03/21 07:22:58;;;;;;;;;;;8.50;99.90;;;;;;5051733;28;19984;-69
2023/03/21 07:25:24;;;;;;;;;;;8.60;99.90;;;;;;5045118;28;19928;-68
2023/03/21 07:27:51;;;;;;;;;;;8.60;99.90;;;;;;5044366;28;19984;-70
2023/03/21 07:30:19;;;;;;;;;;;8.60;99.90;;;;;;5045263;28;20174;-69
2023/03/21 07:32:46;;;;;;;;;;;8.70;99.90;;;;;;5045223;28;19992;-69
2023/03/21 07:35:13;;;;;;;;;;;8.70;99.90;;;;;;5044847;28;19922;-68
2023/03/21 07:37:40;;;;;;;;;;;8.70;99.90;;;;;;5044322;28;19921;-69
2023/03/21 07:40:09;;;;;;;;;;;8.70;99.90;;;;;;5044783;28;19989;-69
2023/03/21 07:42:36;;;;;;;;;;;8.80;99.90;;;;;;5044870;28;19921;-70
2023/03/21 07:45:03;;;;;;;;;;;8.90;99.90;;;;;;5044754;28;19952;-70
2023/03/21 07:47:32;;;;;;;;;;;9.00;99.90;;;;;;5044026;28;19988;-69
2023/03/21 07:49:58;;;;;;;;;;;9.00;99.90;;;;;;5044760;28;20167;-69
2023/03/21 07:52:25;;;;;;;;;;;9.10;99.90;;;;;;5044762;28;19963;-69
2023/03/21 07:54:52;;;;;;;;;;;9.20;99.90;;;;;;5044368;28;19927;-69
2023/03/21 07:57:18;;;;;;;;;;;9.20;99.90;;;;;;5044149;28;19963;-69
2023/03/21 07:59:45;;;;;;;;;;;9.20;99.90;;;;;;5044391;28;20208;-69
2023/03/21 08:02:13;;;;;;;;;;;9.30;99.90;;;;;;5044520;28;19921;-69
2023/03/21 08:04:41;;;;;;;;;;;9.30;99.90;;;;;;5044286;28;19992;-68
2023/03/21 08:07:08;;;;;;;;;;;9.30;99.90;;;;;;5044379;28;19988;-68
2023/03/21 08:09:35;;;;;;;;;;;9.30;99.90;;;;;;5044005;28;20227;-69
2023/03/21 08:12:02;;;;;;;;;;;9.30;99.90;;;;;;5044463;28;19927;-72
2023/03/21 08:14:29;;;;;;;;;;;9.40;99.90;;;;;;5044654;28;19988;-69
2023/03/21 08:16:55;;;;;;;;;;;9.40;99.90;;;;;;5043565;28;19988;-69
2023/03/21 08:19:25;;;;;;;;;;;9.50;99.90;;;;;;5043626;28;19980;-67
2023/03/21 08:21:53;;;;;;;;;;;9.50;99.90;;;;;;5044146;28;19965;-69
2023/03/21 08:24:20;;;;;;;;;;;9.60;99.90;;;;;;5043895;28;19925;-69
2023/03/21 08:26:47;;;;;;;;;;;9.70;99.90;;;;;;5043382;28;20275;-69
2023/03/21 08:29:13;;;;;;;;;;;9.80;99.90;;;;;;5044109;28;19956;-71
2023/03/21 08:31:40;;;;;;;;;;;9.90;99.90;;;;;;5044398;28;19921;-70
2023/03/21 08:34:07;;;;;;;;;;;10.00;99.90;;;;;;5044464;28;20232;-72
2023/03/21 08:36:35;;;;;;;;;;;10.10;99.90;;;;;;5042610;28;19987;-70
2023/03/21 08:39:04;;;;;;;;;;;10.20;99.90;;;;;;5043977;28;19988;-70
2023/03/21 08:41:31;;;;;;;;;;;10.20;99.90;;;;;;5042411;28;19921;-70
2023/03/21 08:43:57;;;;;;;;;;;10.20;99.90;;;;;;5043830;28;19921;-70
2023/03/21 08:46:25;;;;;;;;;;;10.40;99.90;;;;;;5043785;28;20268;-70
2023/03/21 08:48:51;;;;;;;;;;;10.40;99.90;;;;;;5043695;28;19928;-70
2023/03/21 08:51:18;;;;;;;;;;;10.50;99.90;;;;;;5043834;28;19980;-71
2023/03/21 08:53:44;;;;;;;;;;;10.50;99.90;;;;;;5043944;28;20228;-72
2023/03/21 08:56:13;;;;;;;;;;;10.60;99.90;;;;;;5040153;28;20152;-70
2023/03/21 08:58:40;;;;;;;;;;;10.70;99.90;;;;;;5043610;28;20113;-70
2023/03/21 09:01:09;;;;;;;;;;;10.80;99.90;;;;;;5043314;28;20152;-70
2023/03/21 09:03:36;;;;;;;;;;;10.90;99.90;;;;;;5043539;28;19921;-70
2023/03/21 09:06:03;;;;;;;;;;;10.90;99.90;;;;;;5040007;28;19921;-70
2023/03/21 09:08:30;;;;;;;;;;;11.00;99.90;;;;;;5043396;28;19921;-70
2023/03/21 09:10:57;;;;;;;;;;;11.00;99.90;;;;;;5043650;28;19987;-70
2023/03/21 09:13:25;;;;;;;;;;;11.10;99.90;;;;;;5043744;28;19967;-70
2023/03/21 09:15:56;;;;;;;;;;;11.10;99.90;;;;;;5042485;28;19929;-69
2023/03/21 09:18:44;;;;;;;;;;;11.10;99.90;;;;;;5043211;28;19996;-70
2023/03/21 09:21:13;;;;;;;;;;;11.10;99.90;;;;;;5043121;28;20119;-70
2023/03/21 09:23:40;;;;;;;;;;;11.20;99.90;;;;;;5043473;28;19966;-69
2023/03/21 09:26:08;;;;;;;;;;;11.20;99.90;;;;;;5042862;28;19975;-70
2023/03/21 09:28:37;;;;;;;;;;;11.20;99.90;;;;;;5040543;28;19944;-70
2023/03/21 09:31:05;;;;;;;;;;;11.20;99.90;;;;;;5043450;28;19967;-69
2023/03/21 09:33:32;;;;;;;;;;;11.30;99.90;;;;;;5045186;28;19937;-70
2023/03/21 09:35:59;;;;;;;;;;;11.40;99.90;;;;;;5047105;28;19982;-69
2023/03/21 09:38:29;;;;;;;;;;;11.40;99.90;;;;;;5044551;28;20247;-70
2023/03/21 09:41:04;;;;;;;;;;;11.50;99.90;;;;;;5046955;28;19921;-70
2023/03/21 09:43:46;;;;;;;;;;;11.50;99.90;;;;;;5047294;28;19988;-70
2023/03/21 09:46:15;;;;;;;;;;;11.60;99.90;;;;;;5047091;28;19921;-69
2023/03/21 09:48:46;;;;;;;;;;;11.70;99.90;;;;;;5046144;28;19952;-71
2023/03/21 09:51:16;;;;;;;;;;;11.70;99.90;;;;;;5029076;28;19922;-71
2023/03/21 09:53:45;;;;;;;;;;;11.80;99.90;;;;;;5027257;28;19925;-70
2023/03/21 09:56:12;;;;;;;;;;;11.80;99.90;;;;;;5026459;28;20256;-70
2023/03/21 09:58:42;;;;;;;;;;;11.90;99.90;;;;;;5027407;28;19921;-69
2023/03/21 10:01:21;;;;;;;;;;;12.00;99.90;;;;;;5026134;28;20228;-70
2023/03/21 10:03:48;;;;;;;;;;;12.00;99.90;;;;;;5027267;28;19988;-69
2023/03/21 10:06:16;;;;;;;;;;;12.20;99.90;;;;;;5027799;28;19964;-68
2023/03/21 10:08:45;;;;;;;;;;;12.30;99.90;;;;;;5066573;28;19944;-69
2023/03/21 10:11:14;;;;;;;;;;;12.30;99.90;;;;;;5066619;28;19920;-69
2023/03/21 10:13:46;;;;;;;;;;;12.40;99.90;;;;;;5066392;28;19955;-69
2023/03/21 10:16:15;;;;;;;;;;;12.40;99.90;;;;;;5066675;28;19920;-69
2023/03/21 10:18:42;;;;;;;;;;;12.50;99.90;;;;;;5066557;28;20188;-69
2023/03/21 10:21:15;;;;;;;;;;;12.70;99.90;;;;;;5066722;28;19921;-69
2023/03/21 10:23:42;;;;;;;;;;;12.70;99.90;;;;;;5064754;28;19956;-69
2023/03/21 10:26:08;;;;;;;;;;;12.80;99.90;;;;;;5065507;28;19920;-69
2023/03/21 10:28:37;;;;;;;;;;;12.90;99.90;;;;;;5065900;28;20108;-70
2023/03/21 10:31:06;;;;;;;;;;;12.90;99.90;;;;;;5059796;28;19927;-70
2023/03/21 10:33:35;;;;;;;;;;;13.00;99.90;;;;;;5046519;28;19925;-70
2023/03/21 10:36:02;;;;;;;;;;;13.20;99.90;;;;;;5043497;28;19931;-69
2023/03/21 10:38:30;;;;;;;;;;;13.30;99.90;;;;;;5046320;28;19921;-70
2023/03/21 10:40:56;;;;;;;;;;;13.40;99.90;;;;;;5045960;28;19921;-69
2023/03/21 10:43:36;;;;;;;;;;;13.40;99.90;;;;;;5046361;28;19921;-70
2023/03/21 10:46:08;;;;;;;;;;;13.30;99.90;;;;;;5045349;28;19921;-70
2023/03/21 10:48:36;;;;;;;;;;;13.40;99.90;;;;;;5045886;28;19984;-69
2023/03/21 10:51:05;;;;;;;;;;;13.50;99.90;;;;;;5046113;28;19971;-70
2023/03/21 10:53:35;;;;;;;;;;;13.60;99.90;;;;;;5045829;28;19927;-71
2023/03/21 10:56:02;;;;;;;;;;;13.80;99.90;;;;;;5045020;28;19996;-71
2023/03/21 10:58:32;;;;;;;;;;;13.90;99.90;;;;;;5045706;28;19961;-72
2023/03/21 11:01:00;;;;;;;;;;;13.90;99.90;;;;;;5045832;28;19959;-71
2023/03/21 11:03:31;;;;;;;;;;;14.00;99.90;;;;;;5045661;28;19927;-70
2023/03/21 11:06:01;;;;;;;;;;;14.10;99.90;;;;;;5045746;28;20012;-70
2023/03/21 11:08:28;;;;;;;;;;;14.20;99.90;;;;;;5045352;28;19921;-70
2023/03/21 11:10:59;;;;;;;;;;;14.30;99.90;;;;;;5045468;28;19933;-69
2023/03/21 11:13:27;;;;;;;;;;;14.30;99.90;;;;;;5045879;28;19928;-70
2023/03/21 11:15:57;;;;;;;;;;;14.50;99.90;;;;;;5045134;28;20276;-71
2023/03/21 11:18:24;;;;;;;;;;;14.60;99.90;;;;;;5044987;28;19938;-69
2023/03/21 11:20:53;;;;;;;;;;;14.70;99.90;;;;;;5045206;28;19956;-69
2023/03/21 11:23:20;;;;;;;;;;;14.70;99.90;;;;;;5044864;28;19992;-70
2023/03/21 11:25:48;;;;;;;;;;;14.80;99.90;;;;;;5044721;28;20057;-69
2023/03/21 11:28:16;;;;;;;;;;;14.90;99.90;;;;;;5045073;28;20137;-71
2023/03/21 11:30:50;;;;;;;;;;;15.00;99.90;;;;;;5044996;28;19921;-71
2023/03/21 11:33:18;;;;;;;;;;;15.10;99.90;;;;;;5045034;28;20255;-71
2023/03/21 11:35:57;;;;;;;;;;;15.20;99.90;;;;;;5045047;28;19987;-69
2023/03/21 11:38:28;;;;;;;;;;;15.30;99.90;;;;;;5045276;28;20205;-71
2023/03/21 11:40:57;;;;;;;;;;;15.50;99.90;;;;;;5044659;28;20208;-70
2023/03/21 11:43:28;;;;;;;;;;;15.50;99.90;;;;;;5045129;28;19928;-71
2023/03/21 11:45:58;;;;;;;;;;;15.60;99.90;;;;;;5044398;28;19927;-71
2023/03/21 11:48:25;;;;;;;;;;;15.80;99.90;;;;;;5044569;28;19921;-71
2023/03/21 11:50:56;;;;;;;;;;;16.00;99.90;;;;;;5043482;28;19995;-70
2023/03/21 11:53:30;;;;;;;;;;;16.00;99.90;;;;;;5043568;28;19929;-70
2023/03/21 11:56:03;;;;;;;;;;;16.00;99.90;;;;;;5044015;28;19988;-71
2023/03/21 11:58:36;;;;;;;;;;;16.10;99.90;;;;;;5042272;28;19929;-71
2023/03/21 12:01:08;;;;;;;;;;;16.40;99.90;;;;;;5044737;28;19921;-70
2023/03/21 12:03:49;;;;;;;;;;;16.50;99.90;;;;;;5044643;28;19946;-71
2023/03/21 12:06:19;;;;;;;;;;;16.50;99.90;;;;;;5044459;28;19987;-70
2023/03/21 12:08:51;;;;;;;;;;;16.60;99.90;;;;;;5042119;28;20120;-71
2023/03/21 12:11:21;;;;;;;;;;;16.70;99.90;;;;;;5044452;28;19921;-70
2023/03/21 12:13:54;;;;;;;;;;;16.70;99.90;;;;;;5042997;28;19988;-71
2023/03/21 12:16:28;;;;;;;;;;;16.80;99.90;;;;;;5043810;28;19932;-69
2023/03/21 12:19:01;;;;;;;;;;;16.70;99.90;;;;;;5044214;28;19921;-71
2023/03/21 12:21:32;;;;;;;;;;;16.60;99.90;;;;;;5044154;28;20280;-70
2023/03/21 12:24:03;;;;;;;;;;;16.50;99.90;;;;;;5044150;28;20212;-71
2023/03/21 12:26:31;;;;;;;;;;;16.60;99.90;;;;;;5043291;28;19921;-70
2023/03/21 12:29:02;;;;;;;;;;;16.60;99.90;;;;;;5043947;28;19927;-70
2023/03/21 12:31:34;;;;;;;;;;;16.40;99.90;;;;;;5044158;28;19927;-71
2023/03/21 12:34:12;;;;;;;;;;;16.40;99.90;;;;;;5044269;28;19991;-69
2023/03/21 12:36:46;;;;;;;;;;;16.40;99.90;;;;;;5042910;28;20284;-70
2023/03/21 12:39:20;;;;;;;;;;;16.30;99.90;;;;;;5044096;28;19921;-71
2023/03/21 12:41:53;;;;;;;;;;;16.40;99.90;;;;;;5044070;28;19928;-71
2023/03/21 12:44:21;;;;;;;;;;;16.40;99.90;;;;;;5043988;28;19988;-73
2023/03/21 12:46:49;;;;;;;;;;;16.50;99.90;;;;;;5042993;28;20005;-69
2023/03/21 12:49:18;;;;;;;;;;;16.40;99.90;;;;;;5043975;28;19921;-71
2023/03/21 12:51:47;;;;;;;;;;;16.50;99.90;;;;;;5043892;28;19921;-70
2023/03/21 12:54:17;;;;;;;;;;;16.50;99.90;;;;;;5043635;28;19957;-69
2023/03/21 12:56:46;;;;;;;;;;;16.70;99.90;;;;;;5043673;28;19921;-71
2023/03/21 12:59:19;;;;;;;;;;;16.80;99.90;;;;;;5040914;28;19980;-70
2023/03/21 13:01:47;;;;;;;;;;;16.90;99.90;;;;;;5043341;28;19941;-70
2023/03/21 13:04:30;;;;;;;;;;;16.70;99.90;;;;;;5043361;28;19972;-69
2023/03/21 13:06:58;;;;;;;;;;;16.90;99.90;;;;;;5043058;28;19991;-72
2023/03/21 13:09:28;;;;;;;;;;;17.10;99.90;;;;;;5043098;28;19988;-69
2023/03/21 13:11:58;;;;;;;;;;;17.10;99.90;;;;;;5043348;28;20284;-70
2023/03/21 13:14:27;;;;;;;;;;;17.20;99.90;;;;;;5043328;28;19986;-72
2023/03/21 13:16:57;;;;;;;;;;;17.10;99.90;;;;;;5043315;28;20184;-70
2023/03/21 13:19:27;;;;;;;;;;;17.20;99.90;;;;;;5043107;28;19932;-69
2023/03/21 13:21:57;;;;;;;;;;;17.30;99.90;;;;;;5043451;28;19984;-72
2023/03/21 13:24:26;;;;;;;;;;;17.30;99.90;;;;;;5043464;28;19927;-73
2023/03/21 13:26:59;;;;;;;;;;;17.30;99.90;;;;;;5042869;28;19960;-70
2023/03/21 13:29:27;;;;;;;;;;;17.20;99.90;;;;;;5043471;28;19956;-70
2023/03/21 13:31:55;;;;;;;;;;;17.20;99.90;;;;;;5043151;28;20144;-70
2023/03/21 13:34:22;;;;;;;;;;;17.20;99.90;;;;;;5043196;28;19921;-70
2023/03/21 13:36:49;;;;;;;;;;;17.10;99.90;;;;;;5042380;28;19927;-70
2023/03/21 13:39:17;;;;;;;;;;;17.20;99.90;;;;;;5043174;28;20208;-70
2023/03/21 13:41:47;;;;;;;;;;;16.90;99.90;;;;;;5043309;28;19984;-70
2023/03/21 13:44:24;;;;;;;;;;;16.90;99.90;;;;;;5043123;28;19921;-69
2023/03/21 13:46:53;;;;;;;;;;;16.70;99.90;;;;;;5042255;28;19921;-69
2023/03/21 13:49:27;;;;;;;;;;;16.70;99.90;;;;;;5042909;28;19984;-69
2023/03/21 13:51:55;;;;;;;;;;;16.80;99.90;;;;;;5043432;28;19927;-69
2023/03/21 13:54:24;;;;;;;;;;;17.00;99.90;;;;;;5043244;28;19925;-68
2023/03/21 13:56:52;;;;;;;;;;;17.20;99.90;;;;;;5043020;28;19921;-69
2023/03/21 13:59:35;;;;;;;;;;;17.20;99.90;;;;;;5043270;28;19996;-68
2023/03/21 14:02:18;;;;;;;;;;;17.20;99.90;;;;;;5040626;28;19921;-70
2023/03/21 14:04:45;;;;;;;;;;;17.20;99.90;;;;;;5042916;28;19921;-71
2023/03/21 14:07:12;;;;;;;;;;;17.00;99.90;;;;;;5042430;28;20056;-68
2023/03/21 14:09:40;;;;;;;;;;;16.90;99.90;;;;;;5043207;28;20163;-69
2023/03/21 14:12:10;;;;;;;;;;;16.80;99.90;;;;;;5040755;28;20120;-69
2023/03/21 14:14:38;;;;;;;;;;;16.80;99.90;;;;;;5043141;28;19921;-69
2023/03/21 14:17:12;;;;;;;;;;;16.80;99.90;;;;;;5042481;28;19921;-68
2023/03/21 14:19:39;;;;;;;;;;;16.70;99.90;;;;;;5044585;28;20243;-69
2023/03/21 14:22:10;;;;;;;;;;;16.60;99.90;;;;;;5046619;28;19949;-68
2023/03/21 14:24:36;;;;;;;;;;;16.60;99.90;;;;;;5046021;28;19921;-68
2023/03/21 14:27:05;;;;;;;;;;;16.50;99.90;;;;;;5045470;28;19960;-71
2023/03/21 14:29:32;;;;;;;;;;;16.40;99.90;;;;;;5045155;28;19972;-69
2023/03/21 14:31:59;;;;;;;;;;;16.30;99.90;;;;;;5046174;28;19989;-69
2023/03/21 14:34:28;;;;;;;;;;;16.30;99.90;;;;;;5045818;28;19921;-71
2023/03/21 14:36:55;;;;;;;;;;;16.20;99.90;;;;;;5045528;28;19988;-69